sensor_id;sensor_type;location;lat;lon;timestamp;P1;durP1;ratioP1;P2;durP2;ratioP2
18879;SDS011;9572;52.378;13.404;2023-03-04T00:00:28;37.77;;;16.20;;
18879;SDS011;9572;52.378;13.404;2023-03-04T00:02:55;42.23;;;17.10;;
18879;SDS011;9572;52.378;13.404;2023-03-04T00:05:22;39.93;;;16.93;;
18879;SDS011;9572;52.378;13.404;2023-03-04T00:07:49;40.80;;;16.27;;
18879;SDS011;9572;52.378;13.404;2023-03-04T00:10:16;40.63;;;15.93;;
18879;SDS011;9572;52.378;13.404;2023-03-04T00:12:44;40.30;;;16.80;;
18879;SDS011;9572;52.378;13.404;2023-03-04T00:15:11;38.77;;;16.03;;
18879;SDS011;9572;52.378;13.404;2023-03-04T00:17:38;40.57;;;16.43;;
18879;SDS011;9572;52.378;13.404;2023-03-04T00:20:05;36.37;;;16.07;;
18879;SDS011;9572;52.378;13.404;2023-03-04T00:22:33;37.10;;;16.23;;
18879;SDS011;9572;52.378;13.404;2023-03-04T00:25:00;40.17;;;16.87;;
18879;SDS011;9572;52.378;13.404;2023-03-04T00:27:27;36.03;;;15.73;;
18879;SDS011;9572;52.378;13.404;2023-03-04T00:29:55;35.67;;;15.87;;
18879;SDS011;9572;52.378;13.404;2023-03-04T00:32:22;37.87;;;15.93;;
18879;SDS011;9572;52.378;13.404;2023-03-04T00:34:49;39.63;;;17.37;;
18879;SDS011;9572;52.378;13.404;2023-03-04T00:37:16;41.40;;;15.97;;
18879;SDS011;9572;52.378;13.404;2023-03-04T00:39:43;44.87;;;17.60;;
18879;SDS011;9572;52.378;13.404;2023-03-04T00:42:10;38.63;;;16.17;;
18879;SDS011;9572;52.378;13.404;2023-03-04T00:44:37;36.70;;;16.27;;
18879;SDS011;9572;52.378;13.404;2023-03-04T00:47:05;40.70;;;17.03;;
18879;SDS011;9572;52.378;13.404;2023-03-04T00:49:32;42.50;;;16.00;;
18879;SDS011;9572;52.378;13.404;2023-03-04T00:51:59;42.27;;;17.40;;
18879;SDS011;9572;52.378;13.404;2023-03-04T00:54:26;41.80;;;16.83;;
18879;SDS011;9572;52.378;13.404;2023-03-04T00:56:52;35.33;;;14.63;;
18879;SDS011;9572;52.378;13.404;2023-03-04T00:59:19;35.37;;;15.13;;
18879;SDS011;9572;52.378;13.404;2023-03-04T01:01:46;37.97;;;16.10;;
18879;SDS011;9572;52.378;13.404;2023-03-04T01:04:15;37.73;;;15.17;;
18879;SDS011;9572;52.378;13.404;2023-03-04T01:06:41;38.00;;;15.97;;
18879;SDS011;9572;52.378;13.404;2023-03-04T01:09:08;35.23;;;13.67;;
18879;SDS011;9572;52.378;13.404;2023-03-04T01:11:35;28.20;;;12.83;;
18879;SDS011;9572;52.378;13.404;2023-03-04T01:14:02;46.23;;;14.17;;
18879;SDS011;9572;52.378;13.404;2023-03-04T01:16:29;40.77;;;13.10;;
18879;SDS011;9572;52.378;13.404;2023-03-04T01:18:56;36.53;;;13.50;;
18879;SDS011;9572;52.378;13.404;2023-03-04T01:21:24;36.63;;;13.73;;
18879;SDS011;9572;52.378;13.404;2023-03-04T01:23:51;32.80;;;12.60;;
18879;SDS011;9572;52.378;13.404;2023-03-04T01:26:18;36.00;;;12.07;;
18879;SDS011;9572;52.378;13.404;2023-03-04T01:28:45;37.57;;;12.77;;
18879;SDS011;9572;52.378;13.404;2023-03-04T01:31:12;35.23;;;11.70;;
18879;SDS011;9572;52.378;13.404;2023-03-04T01:33:39;35.30;;;11.83;;
18879;SDS011;9572;52.378;13.404;2023-03-04T01:36:05;34.73;;;11.67;;
18879;SDS011;9572;52.378;13.404;2023-03-04T01:38:34;30.70;;;11.40;;
18879;SDS011;9572;52.378;13.404;2023-03-04T01:41:01;32.73;;;11.80;;
18879;SDS011;9572;52.378;13.404;2023-03-04T01:43:28;37.57;;;10.93;;
18879;SDS011;9572;52.378;13.404;2023-03-04T01:45:56;32.07;;;11.40;;
18879;SDS011;9572;52.378;13.404;2023-03-04T01:48:24;29.70;;;11.47;;
18879;SDS011;9572;52.378;13.404;2023-03-04T01:50:54;39.33;;;12.27;;
18879;SDS011;9572;52.378;13.404;2023-03-04T01:53:21;31.80;;;11.93;;
18879;SDS011;9572;52.378;13.404;2023-03-04T01:55:52;31.97;;;11.30;;
18879;SDS011;9572;52.378;13.404;2023-03-04T01:58:29;33.47;;;11.80;;
18879;SDS011;9572;52.378;13.404;2023-03-04T02:00:57;35.00;;;10.80;;
18879;SDS011;9572;52.378;13.404;2023-03-04T02:03:24;35.47;;;11.63;;
18879;SDS011;9572;52.378;13.404;2023-03-04T02:05:51;30.67;;;10.53;;
18879;SDS011;9572;52.378;13.404;2023-03-04T02:08:19;33.90;;;10.33;;
18879;SDS011;9572;52.378;13.404;2023-03-04T02:10:48;28.47;;;10.80;;
18879;SDS011;9572;52.378;13.404;2023-03-04T02:13:17;34.07;;;10.50;;
18879;SDS011;9572;52.378;13.404;2023-03-04T02:15:44;34.33;;;10.50;;
18879;SDS011;9572;52.378;13.404;2023-03-04T02:18:13;30.80;;;10.10;;
18879;SDS011;9572;52.378;13.404;2023-03-04T02:20:44;28.83;;;9.30;;
18879;SDS011;9572;52.378;13.404;2023-03-04T02:23:22;36.87;;;10.07;;
18879;SDS011;9572;52.378;13.404;2023-03-04T02:26:07;24.53;;;9.60;;
18879;SDS011;9572;52.378;13.404;2023-03-04T02:28:37;26.43;;;9.60;;
18879;SDS011;9572;52.378;13.404;2023-03-04T02:31:04;29.30;;;9.57;;
18879;SDS011;9572;52.378;13.404;2023-03-04T02:33:31;27.83;;;8.70;;
18879;SDS011;9572;52.378;13.404;2023-03-04T02:35:58;25.87;;;9.10;;
18879;SDS011;9572;52.378;13.404;2023-03-04T02:38:25;36.00;;;9.27;;
18879;SDS011;9572;52.378;13.404;2023-03-04T02:40:52;38.00;;;10.30;;
18879;SDS011;9572;52.378;13.404;2023-03-04T02:43:22;29.13;;;9.07;;
18879;SDS011;9572;52.378;13.404;2023-03-04T02:45:49;30.37;;;8.40;;
18879;SDS011;9572;52.378;13.404;2023-03-04T02:48:17;27.17;;;8.30;;
18879;SDS011;9572;52.378;13.404;2023-03-04T02:50:46;28.07;;;8.47;;
18879;SDS011;9572;52.378;13.404;2023-03-04T02:53:16;24.87;;;9.53;;
18879;SDS011;9572;52.378;13.404;2023-03-04T02:55:43;35.20;;;8.73;;
18879;SDS011;9572;52.378;13.404;2023-03-04T02:58:10;28.00;;;7.93;;
18879;SDS011;9572;52.378;13.404;2023-03-04T03:00:38;29.67;;;8.17;;
18879;SDS011;9572;52.378;13.404;2023-03-04T03:03:06;28.40;;;6.93;;
18879;SDS011;9572;52.378;13.404;2023-03-04T03:05:33;23.97;;;6.87;;
18879;SDS011;9572;52.378;13.404;2023-03-04T03:08:01;24.77;;;7.00;;
18879;SDS011;9572;52.378;13.404;2023-03-04T03:10:28;27.77;;;7.10;;
18879;SDS011;9572;52.378;13.404;2023-03-04T03:12:55;33.90;;;8.57;;
18879;SDS011;9572;52.378;13.404;2023-03-04T03:15:22;21.97;;;6.43;;
18879;SDS011;9572;52.378;13.404;2023-03-04T03:17:50;23.43;;;6.57;;
18879;SDS011;9572;52.378;13.404;2023-03-04T03:20:17;23.97;;;7.03;;
18879;SDS011;9572;52.378;13.404;2023-03-04T03:22:44;34.03;;;7.43;;
18879;SDS011;9572;52.378;13.404;2023-03-04T03:25:12;18.90;;;6.37;;
18879;SDS011;9572;52.378;13.404;2023-03-04T03:27:40;25.80;;;6.90;;
18879;SDS011;9572;52.378;13.404;2023-03-04T03:30:08;21.40;;;6.20;;
18879;SDS011;9572;52.378;13.404;2023-03-04T03:32:36;19.53;;;6.13;;
18879;SDS011;9572;52.378;13.404;2023-03-04T03:35:05;21.43;;;6.40;;
18879;SDS011;9572;52.378;13.404;2023-03-04T03:37:32;29.30;;;6.77;;
18879;SDS011;9572;52.378;13.404;2023-03-04T03:39:59;16.80;;;5.67;;
18879;SDS011;9572;52.378;13.404;2023-03-04T03:42:26;22.90;;;6.73;;
18879;SDS011;9572;52.378;13.404;2023-03-04T03:44:53;19.77;;;6.77;;
18879;SDS011;9572;52.378;13.404;2023-03-04T03:47:21;20.00;;;5.67;;
18879;SDS011;9572;52.378;13.404;2023-03-04T03:49:48;25.17;;;6.23;;
18879;SDS011;9572;52.378;13.404;2023-03-04T03:52:17;17.87;;;5.83;;
18879;SDS011;9572;52.378;13.404;2023-03-04T03:54:43;23.83;;;6.27;;
18879;SDS011;9572;52.378;13.404;2023-03-04T03:57:10;25.57;;;7.63;;
18879;SDS011;9572;52.378;13.404;2023-03-04T03:59:37;19.60;;;5.27;;
18879;SDS011;9572;52.378;13.404;2023-03-04T04:02:04;28.03;;;6.93;;
18879;SDS011;9572;52.378;13.404;2023-03-04T04:04:31;22.30;;;5.50;;
18879;SDS011;9572;52.378;13.404;2023-03-04T04:06:58;20.07;;;5.87;;
18879;SDS011;9572;52.378;13.404;2023-03-04T04:09:26;22.57;;;5.97;;
18879;SDS011;9572;52.378;13.404;2023-03-04T04:11:53;21.70;;;5.50;;
18879;SDS011;9572;52.378;13.404;2023-03-04T04:14:20;18.60;;;5.20;;
18879;SDS011;9572;52.378;13.404;2023-03-04T04:16:47;20.87;;;5.73;;
18879;SDS011;9572;52.378;13.404;2023-03-04T04:19:17;27.77;;;5.70;;
18879;SDS011;9572;52.378;13.404;2023-03-04T04:21:44;23.63;;;5.47;;
18879;SDS011;9572;52.378;13.404;2023-03-04T04:24:12;22.60;;;4.90;;
18879;SDS011;9572;52.378;13.404;2023-03-04T04:26:40;20.60;;;5.87;;
18879;SDS011;9572;52.378;13.404;2023-03-04T04:29:08;18.40;;;5.10;;
18879;SDS011;9572;52.378;13.404;2023-03-04T04:31:35;19.13;;;5.60;;
18879;SDS011;9572;52.378;13.404;2023-03-04T04:34:02;21.77;;;5.33;;
18879;SDS011;9572;52.378;13.404;2023-03-04T04:36:29;18.53;;;4.77;;
18879;SDS011;9572;52.378;13.404;2023-03-04T04:38:56;18.10;;;4.37;;
18879;SDS011;9572;52.378;13.404;2023-03-04T04:41:23;17.80;;;4.67;;
18879;SDS011;9572;52.378;13.404;2023-03-04T04:43:53;18.27;;;4.67;;
18879;SDS011;9572;52.378;13.404;2023-03-04T04:46:20;23.07;;;5.10;;
18879;SDS011;9572;52.378;13.404;2023-03-04T04:48:47;18.10;;;5.30;;
18879;SDS011;9572;52.378;13.404;2023-03-04T04:51:14;20.43;;;5.07;;
18879;SDS011;9572;52.378;13.404;2023-03-04T04:53:41;20.03;;;4.90;;
18879;SDS011;9572;52.378;13.404;2023-03-04T04:56:09;22.07;;;4.33;;
18879;SDS011;9572;52.378;13.404;2023-03-04T04:58:37;20.30;;;3.97;;
18879;SDS011;9572;52.378;13.404;2023-03-04T05:01:06;15.03;;;3.60;;
18879;SDS011;9572;52.378;13.404;2023-03-04T05:03:33;21.73;;;4.57;;
18879;SDS011;9572;52.378;13.404;2023-03-04T05:06:02;11.73;;;3.10;;
18879;SDS011;9572;52.378;13.404;2023-03-04T05:08:31;20.20;;;3.83;;
18879;SDS011;9572;52.378;13.404;2023-03-04T05:10:58;15.30;;;3.63;;
18879;SDS011;9572;52.378;13.404;2023-03-04T05:13:25;13.70;;;3.57;;
18879;SDS011;9572;52.378;13.404;2023-03-04T05:15:53;16.23;;;4.17;;
18879;SDS011;9572;52.378;13.404;2023-03-04T05:18:22;14.70;;;3.70;;
18879;SDS011;9572;52.378;13.404;2023-03-04T05:20:50;20.43;;;4.50;;
18879;SDS011;9572;52.378;13.404;2023-03-04T05:23:17;13.33;;;3.70;;
18879;SDS011;9572;52.378;13.404;2023-03-04T05:25:44;11.50;;;3.53;;
18879;SDS011;9572;52.378;13.404;2023-03-04T05:28:11;14.87;;;3.20;;
18879;SDS011;9572;52.378;13.404;2023-03-04T05:30:39;15.53;;;3.27;;
18879;SDS011;9572;52.378;13.404;2023-03-04T05:33:06;14.53;;;3.27;;
18879;SDS011;9572;52.378;13.404;2023-03-04T05:35:36;13.93;;;3.17;;
18879;SDS011;9572;52.378;13.404;2023-03-04T05:38:04;13.67;;;3.30;;
18879;SDS011;9572;52.378;13.404;2023-03-04T05:40:32;16.67;;;3.73;;
18879;SDS011;9572;52.378;13.404;2023-03-04T05:42:59;10.37;;;2.77;;
18879;SDS011;9572;52.378;13.404;2023-03-04T05:45:26;17.73;;;3.50;;
18879;SDS011;9572;52.378;13.404;2023-03-04T05:47:53;13.20;;;3.23;;
18879;SDS011;9572;52.378;13.404;2023-03-04T05:50:21;15.30;;;3.10;;
18879;SDS011;9572;52.378;13.404;2023-03-04T05:52:49;13.73;;;2.50;;
18879;SDS011;9572;52.378;13.404;2023-03-04T05:55:16;16.77;;;3.13;;
18879;SDS011;9572;52.378;13.404;2023-03-04T05:57:43;12.87;;;3.07;;
18879;SDS011;9572;52.378;13.404;2023-03-04T06:00:12;11.20;;;2.80;;
18879;SDS011;9572;52.378;13.404;2023-03-04T06:02:40;12.57;;;2.97;;
18879;SDS011;9572;52.378;13.404;2023-03-04T06:05:09;11.00;;;2.90;;
18879;SDS011;9572;52.378;13.404;2023-03-04T06:07:40;14.77;;;2.90;;
18879;SDS011;9572;52.378;13.404;2023-03-04T06:10:10;9.30;;;2.83;;
18879;SDS011;9572;52.378;13.404;2023-03-04T06:12:38;11.83;;;3.07;;
18879;SDS011;9572;52.378;13.404;2023-03-04T06:15:06;13.60;;;3.17;;
18879;SDS011;9572;52.378;13.404;2023-03-04T06:17:35;10.73;;;2.70;;
18879;SDS011;9572;52.378;13.404;2023-03-04T06:20:02;13.20;;;3.27;;
18879;SDS011;9572;52.378;13.404;2023-03-04T06:22:31;18.83;;;3.07;;
18879;SDS011;9572;52.378;13.404;2023-03-04T06:24:58;11.53;;;2.57;;
18879;SDS011;9572;52.378;13.404;2023-03-04T06:27:26;9.23;;;2.87;;
18879;SDS011;9572;52.378;13.404;2023-03-04T06:29:53;10.23;;;2.70;;
18879;SDS011;9572;52.378;13.404;2023-03-04T06:32:20;10.33;;;2.57;;
18879;SDS011;9572;52.378;13.404;2023-03-04T06:34:47;11.53;;;2.60;;
18879;SDS011;9572;52.378;13.404;2023-03-04T06:37:14;13.77;;;3.10;;
18879;SDS011;9572;52.378;13.404;2023-03-04T06:39:41;10.13;;;2.77;;
18879;SDS011;9572;52.378;13.404;2023-03-04T06:42:07;12.60;;;3.30;;
18879;SDS011;9572;52.378;13.404;2023-03-04T06:44:36;11.23;;;2.73;;
18879;SDS011;9572;52.378;13.404;2023-03-04T06:47:03;15.37;;;3.43;;
18879;SDS011;9572;52.378;13.404;2023-03-04T06:49:29;16.20;;;3.43;;
18879;SDS011;9572;52.378;13.404;2023-03-04T06:51:56;8.50;;;2.77;;
18879;SDS011;9572;52.378;13.404;2023-03-04T06:54:23;16.77;;;3.77;;
18879;SDS011;9572;52.378;13.404;2023-03-04T06:56:50;10.00;;;3.07;;
18879;SDS011;9572;52.378;13.404;2023-03-04T06:59:17;8.97;;;3.30;;
18879;SDS011;9572;52.378;13.404;2023-03-04T07:01:45;12.00;;;3.60;;
18879;SDS011;9572;52.378;13.404;2023-03-04T07:04:12;10.40;;;3.23;;
18879;SDS011;9572;52.378;13.404;2023-03-04T07:06:39;11.80;;;3.33;;
18879;SDS011;9572;52.378;13.404;2023-03-04T07:09:06;11.03;;;3.47;;
18879;SDS011;9572;52.378;13.404;2023-03-04T07:11:33;14.57;;;3.33;;
18879;SDS011;9572;52.378;13.404;2023-03-04T07:14:00;17.93;;;4.07;;
18879;SDS011;9572;52.378;13.404;2023-03-04T07:16:27;8.87;;;3.13;;
18879;SDS011;9572;52.378;13.404;2023-03-04T07:18:55;14.77;;;3.50;;
18879;SDS011;9572;52.378;13.404;2023-03-04T07:21:22;10.77;;;3.40;;
18879;SDS011;9572;52.378;13.404;2023-03-04T07:23:49;11.50;;;4.03;;
18879;SDS011;9572;52.378;13.404;2023-03-04T07:26:16;10.43;;;3.50;;
18879;SDS011;9572;52.378;13.404;2023-03-04T07:28:43;8.80;;;3.27;;
18879;SDS011;9572;52.378;13.404;2023-03-04T07:31:12;7.03;;;2.93;;
18879;SDS011;9572;52.378;13.404;2023-03-04T07:33:45;8.90;;;3.60;;
18879;SDS011;9572;52.378;13.404;2023-03-04T07:36:13;10.93;;;3.70;;
18879;SDS011;9572;52.378;13.404;2023-03-04T07:38:42;11.20;;;3.77;;
18879;SDS011;9572;52.378;13.404;2023-03-04T07:41:09;12.47;;;3.40;;
18879;SDS011;9572;52.378;13.404;2023-03-04T07:43:36;10.43;;;3.40;;
18879;SDS011;9572;52.378;13.404;2023-03-04T07:46:03;11.30;;;3.53;;
18879;SDS011;9572;52.378;13.404;2023-03-04T07:48:30;9.23;;;3.23;;
18879;SDS011;9572;52.378;13.404;2023-03-04T07:51:03;13.13;;;3.57;;
18879;SDS011;9572;52.378;13.404;2023-03-04T07:53:33;10.57;;;2.97;;
18879;SDS011;9572;52.378;13.404;2023-03-04T07:56:01;6.93;;;2.83;;
18879;SDS011;9572;52.378;13.404;2023-03-04T07:58:28;8.70;;;3.13;;
18879;SDS011;9572;52.378;13.404;2023-03-04T08:00:55;6.47;;;2.80;;
18879;SDS011;9572;52.378;13.404;2023-03-04T08:03:22;7.40;;;2.80;;
18879;SDS011;9572;52.378;13.404;2023-03-04T08:05:49;8.20;;;2.97;;
18879;SDS011;9572;52.378;13.404;2023-03-04T08:08:16;7.07;;;3.30;;
18879;SDS011;9572;52.378;13.404;2023-03-04T08:10:44;11.30;;;3.40;;
18879;SDS011;9572;52.378;13.404;2023-03-04T08:13:11;10.27;;;3.30;;
18879;SDS011;9572;52.378;13.404;2023-03-04T08:15:39;10.20;;;3.67;;
18879;SDS011;9572;52.378;13.404;2023-03-04T08:18:06;8.93;;;3.37;;
18879;SDS011;9572;52.378;13.404;2023-03-04T08:20:33;12.00;;;3.50;;
18879;SDS011;9572;52.378;13.404;2023-03-04T08:23:01;10.17;;;3.10;;
18879;SDS011;9572;52.378;13.404;2023-03-04T08:25:27;11.30;;;3.27;;
18879;SDS011;9572;52.378;13.404;2023-03-04T08:27:56;7.97;;;2.87;;
18879;SDS011;9572;52.378;13.404;2023-03-04T08:30:23;9.00;;;3.00;;
18879;SDS011;9572;52.378;13.404;2023-03-04T08:32:50;6.67;;;2.80;;
18879;SDS011;9572;52.378;13.404;2023-03-04T08:35:17;9.23;;;2.70;;
18879;SDS011;9572;52.378;13.404;2023-03-04T08:37:44;10.03;;;2.87;;
18879;SDS011;9572;52.378;13.404;2023-03-04T08:40:12;11.60;;;2.90;;
18879;SDS011;9572;52.378;13.404;2023-03-04T08:42:39;6.57;;;2.17;;
18879;SDS011;9572;52.378;13.404;2023-03-04T08:45:08;10.60;;;2.80;;
18879;SDS011;9572;52.378;13.404;2023-03-04T08:47:36;8.77;;;2.87;;
18879;SDS011;9572;52.378;13.404;2023-03-04T08:50:03;6.60;;;2.43;;
18879;SDS011;9572;52.378;13.404;2023-03-04T08:52:31;8.60;;;2.17;;
18879;SDS011;9572;52.378;13.404;2023-03-04T08:54:58;7.83;;;3.20;;
18879;SDS011;9572;52.378;13.404;2023-03-04T08:57:25;9.20;;;2.97;;
18879;SDS011;9572;52.378;13.404;2023-03-04T08:59:52;8.70;;;2.60;;
18879;SDS011;9572;52.378;13.404;2023-03-04T09:02:20;5.30;;;2.20;;
18879;SDS011;9572;52.378;13.404;2023-03-04T09:04:47;8.43;;;3.00;;
18879;SDS011;9572;52.378;13.404;2023-03-04T09:07:14;6.20;;;2.63;;
18879;SDS011;9572;52.378;13.404;2023-03-04T09:09:41;8.07;;;2.70;;
18879;SDS011;9572;52.378;13.404;2023-03-04T09:12:07;11.30;;;2.77;;
18879;SDS011;9572;52.378;13.404;2023-03-04T09:14:34;7.10;;;2.30;;
18879;SDS011;9572;52.378;13.404;2023-03-04T09:17:01;7.93;;;2.47;;
18879;SDS011;9572;52.378;13.404;2023-03-04T09:19:30;9.63;;;2.67;;
18879;SDS011;9572;52.378;13.404;2023-03-04T09:21:57;7.77;;;2.53;;
18879;SDS011;9572;52.378;13.404;2023-03-04T09:24:24;11.10;;;2.87;;
18879;SDS011;9572;52.378;13.404;2023-03-04T09:26:51;6.70;;;2.27;;
18879;SDS011;9572;52.378;13.404;2023-03-04T09:29:19;6.90;;;1.97;;
18879;SDS011;9572;52.378;13.404;2023-03-04T09:31:46;5.83;;;2.00;;
18879;SDS011;9572;52.378;13.404;2023-03-04T09:34:12;6.67;;;2.10;;
18879;SDS011;9572;52.378;13.404;2023-03-04T09:36:41;9.30;;;2.20;;
18879;SDS011;9572;52.378;13.404;2023-03-04T09:39:08;4.83;;;1.87;;
18879;SDS011;9572;52.378;13.404;2023-03-04T09:41:36;3.93;;;2.17;;
18879;SDS011;9572;52.378;13.404;2023-03-04T09:44:06;7.80;;;2.03;;
18879;SDS011;9572;52.378;13.404;2023-03-04T09:46:40;15.13;;;2.23;;
18879;SDS011;9572;52.378;13.404;2023-03-04T09:49:10;8.27;;;2.13;;
18879;SDS011;9572;52.378;13.404;2023-03-04T09:51:45;16.30;;;2.47;;
18879;SDS011;9572;52.378;13.404;2023-03-04T09:54:17;5.20;;;1.70;;
18879;SDS011;9572;52.378;13.404;2023-03-04T09:56:54;4.53;;;2.03;;
18879;SDS011;9572;52.378;13.404;2023-03-04T09:59:27;6.90;;;2.13;;
18879;SDS011;9572;52.378;13.404;2023-03-04T10:01:58;6.67;;;2.23;;
18879;SDS011;9572;52.378;13.404;2023-03-04T10:04:29;7.87;;;1.93;;
18879;SDS011;9572;52.378;13.404;2023-03-04T10:07:01;8.60;;;2.03;;
18879;SDS011;9572;52.378;13.404;2023-03-04T10:09:30;9.57;;;2.37;;
18879;SDS011;9572;52.378;13.404;2023-03-04T10:12:09;3.57;;;2.00;;
18879;SDS011;9572;52.378;13.404;2023-03-04T10:14:39;11.03;;;2.33;;
18879;SDS011;9572;52.378;13.404;2023-03-04T10:17:12;7.60;;;1.60;;
18879;SDS011;9572;52.378;13.404;2023-03-04T10:19:51;7.23;;;1.90;;
18879;SDS011;9572;52.378;13.404;2023-03-04T10:22:25;5.00;;;1.33;;
18879;SDS011;9572;52.378;13.404;2023-03-04T10:24:58;13.10;;;2.00;;
18879;SDS011;9572;52.378;13.404;2023-03-04T10:27:27;10.27;;;1.63;;
18879;SDS011;9572;52.378;13.404;2023-03-04T10:29:56;8.70;;;2.10;;
18879;SDS011;9572;52.378;13.404;2023-03-04T10:32:24;14.17;;;1.87;;
18879;SDS011;9572;52.378;13.404;2023-03-04T10:34:51;5.50;;;1.60;;
18879;SDS011;9572;52.378;13.404;2023-03-04T10:37:18;13.27;;;2.07;;
18879;SDS011;9572;52.378;13.404;2023-03-04T10:39:46;9.57;;;2.00;;
18879;SDS011;9572;52.378;13.404;2023-03-04T10:42:22;9.67;;;1.87;;
18879;SDS011;9572;52.378;13.404;2023-03-04T10:44:54;7.37;;;1.77;;
18879;SDS011;9572;52.378;13.404;2023-03-04T10:47:23;13.97;;;1.80;;
18879;SDS011;9572;52.378;13.404;2023-03-04T10:49:51;9.47;;;1.60;;
18879;SDS011;9572;52.378;13.404;2023-03-04T10:52:22;12.30;;;1.80;;
18879;SDS011;9572;52.378;13.404;2023-03-04T10:54:55;18.03;;;2.73;;
18879;SDS011;9572;52.378;13.404;2023-03-04T10:57:25;10.63;;;1.83;;
18879;SDS011;9572;52.378;13.404;2023-03-04T10:59:58;11.93;;;1.77;;
18879;SDS011;9572;52.378;13.404;2023-03-04T11:02:26;13.67;;;2.03;;
18879;SDS011;9572;52.378;13.404;2023-03-04T11:04:56;13.37;;;2.23;;
18879;SDS011;9572;52.378;13.404;2023-03-04T11:07:35;17.77;;;1.83;;
18879;SDS011;9572;52.378;13.404;2023-03-04T11:10:09;8.60;;;2.17;;
18879;SDS011;9572;52.378;13.404;2023-03-04T11:12:39;12.80;;;1.57;;
18879;SDS011;9572;52.378;13.404;2023-03-04T11:15:15;7.77;;;1.70;;
18879;SDS011;9572;52.378;13.404;2023-03-04T11:17:51;13.43;;;2.13;;
18879;SDS011;9572;52.378;13.404;2023-03-04T11:20:24;15.37;;;2.30;;
18879;SDS011;9572;52.378;13.404;2023-03-04T11:22:56;12.43;;;3.17;;
18879;SDS011;9572;52.378;13.404;2023-03-04T11:25:28;10.30;;;1.93;;
18879;SDS011;9572;52.378;13.404;2023-03-04T11:27:59;11.90;;;2.57;;
18879;SDS011;9572;52.378;13.404;2023-03-04T11:30:32;15.83;;;2.20;;
18879;SDS011;9572;52.378;13.404;2023-03-04T11:33:14;16.17;;;1.90;;
18879;SDS011;9572;52.378;13.404;2023-03-04T11:35:49;22.33;;;3.00;;
18879;SDS011;9572;52.378;13.404;2023-03-04T11:38:23;13.30;;;1.93;;
18879;SDS011;9572;52.378;13.404;2023-03-04T11:40:58;10.97;;;1.90;;
18879;SDS011;9572;52.378;13.404;2023-03-04T11:43:31;13.53;;;2.70;;
18879;SDS011;9572;52.378;13.404;2023-03-04T11:46:04;25.10;;;3.00;;
18879;SDS011;9572;52.378;13.404;2023-03-04T11:48:57;14.40;;;2.70;;
18879;SDS011;9572;52.378;13.404;2023-03-04T11:51:36;13.53;;;2.57;;
18879;SDS011;9572;52.378;13.404;2023-03-04T11:54:13;18.87;;;3.30;;
18879;SDS011;9572;52.378;13.404;2023-03-04T11:56:46;14.27;;;2.67;;
18879;SDS011;9572;52.378;13.404;2023-03-04T12:02:13;18.83;;;2.97;;
18879;SDS011;9572;52.378;13.404;2023-03-04T12:04:57;18.17;;;3.00;;
18879;SDS011;9572;52.378;13.404;2023-03-04T12:07:49;16.47;;;2.97;;
18879;SDS011;9572;52.378;13.404;2023-03-04T12:10:32;16.43;;;2.70;;
18879;SDS011;9572;52.378;13.404;2023-03-04T12:13:09;16.53;;;2.60;;
18879;SDS011;9572;52.378;13.404;2023-03-04T12:16:01;17.77;;;2.60;;
18879;SDS011;9572;52.378;13.404;2023-03-04T12:18:44;15.53;;;2.63;;
18879;SDS011;9572;52.378;13.404;2023-03-04T12:21:45;21.30;;;2.93;;
18879;SDS011;9572;52.378;13.404;2023-03-04T12:24:33;20.97;;;3.10;;
18879;SDS011;9572;52.378;13.404;2023-03-04T12:27:10;15.23;;;2.70;;
18879;SDS011;9572;52.378;13.404;2023-03-04T12:29:48;20.20;;;3.00;;
18879;SDS011;9572;52.378;13.404;2023-03-04T12:32:25;12.73;;;2.60;;
18879;SDS011;9572;52.378;13.404;2023-03-04T12:41:20;13.83;;;2.23;;
18879;SDS011;9572;52.378;13.404;2023-03-04T12:43:53;18.07;;;2.77;;
18879;SDS011;9572;52.378;13.404;2023-03-04T12:46:33;14.90;;;2.40;;
18879;SDS011;9572;52.378;13.404;2023-03-04T12:49:14;12.80;;;2.33;;
18879;SDS011;9572;52.378;13.404;2023-03-04T12:51:58;14.27;;;2.40;;
18879;SDS011;9572;52.378;13.404;2023-03-04T12:54:36;15.87;;;2.87;;
18879;SDS011;9572;52.378;13.404;2023-03-04T12:57:16;11.63;;;2.20;;
18879;SDS011;9572;52.378;13.404;2023-03-04T12:59:48;15.10;;;2.23;;
18879;SDS011;9572;52.378;13.404;2023-03-04T13:02:31;21.10;;;3.00;;
18879;SDS011;9572;52.378;13.404;2023-03-04T13:05:14;16.07;;;3.30;;
18879;SDS011;9572;52.378;13.404;2023-03-04T13:07:57;12.97;;;2.60;;
18879;SDS011;9572;52.378;13.404;2023-03-04T13:10:33;13.90;;;2.50;;
18879;SDS011;9572;52.378;13.404;2023-03-04T13:13:00;16.20;;;2.30;;
18879;SDS011;9572;52.378;13.404;2023-03-04T13:15:29;17.13;;;3.07;;
18879;SDS011;9572;52.378;13.404;2023-03-04T13:18:03;14.30;;;2.90;;
18879;SDS011;9572;52.378;13.404;2023-03-04T13:20:45;13.77;;;2.30;;
18879;SDS011;9572;52.378;13.404;2023-03-04T13:23:22;14.63;;;2.50;;
18879;SDS011;9572;52.378;13.404;2023-03-04T13:28:46;14.53;;;3.23;;
18879;SDS011;9572;52.378;13.404;2023-03-04T13:31:20;11.67;;;2.20;;
18879;SDS011;9572;52.378;13.404;2023-03-04T13:33:58;12.00;;;2.73;;
18879;SDS011;9572;52.378;13.404;2023-03-04T13:36:32;14.20;;;2.10;;
18879;SDS011;9572;52.378;13.404;2023-03-04T13:39:22;15.90;;;2.90;;
18879;SDS011;9572;52.378;13.404;2023-03-04T13:41:51;10.03;;;2.17;;
18879;SDS011;9572;52.378;13.404;2023-03-04T13:47:31;15.27;;;2.13;;
18879;SDS011;9572;52.378;13.404;2023-03-04T13:50:22;8.63;;;2.00;;
18879;SDS011;9572;52.378;13.404;2023-03-04T13:56:04;12.27;;;2.43;;
18879;SDS011;9572;52.378;13.404;2023-03-04T13:58:39;8.47;;;2.10;;
18879;SDS011;9572;52.378;13.404;2023-03-04T14:01:16;9.87;;;2.33;;
18879;SDS011;9572;52.378;13.404;2023-03-04T14:03:50;18.57;;;2.50;;
18879;SDS011;9572;52.378;13.404;2023-03-04T14:06:20;14.47;;;2.40;;
18879;SDS011;9572;52.378;13.404;2023-03-04T14:08:48;15.77;;;3.10;;
18879;SDS011;9572;52.378;13.404;2023-03-04T14:11:20;13.83;;;2.30;;
18879;SDS011;9572;52.378;13.404;2023-03-04T14:13:51;9.90;;;1.90;;
18879;SDS011;9572;52.378;13.404;2023-03-04T14:16:20;15.60;;;2.93;;
18879;SDS011;9572;52.378;13.404;2023-03-04T14:18:58;10.93;;;2.23;;
18879;SDS011;9572;52.378;13.404;2023-03-04T14:21:29;10.93;;;1.93;;
18879;SDS011;9572;52.378;13.404;2023-03-04T14:24:00;11.80;;;2.70;;
18879;SDS011;9572;52.378;13.404;2023-03-04T14:26:28;14.33;;;2.27;;
18879;SDS011;9572;52.378;13.404;2023-03-04T14:28:56;17.30;;;3.17;;
18879;SDS011;9572;52.378;13.404;2023-03-04T14:31:24;12.53;;;2.40;;
18879;SDS011;9572;52.378;13.404;2023-03-04T14:33:54;14.27;;;2.10;;
18879;SDS011;9572;52.378;13.404;2023-03-04T14:36:26;11.93;;;1.90;;
18879;SDS011;9572;52.378;13.404;2023-03-04T14:38:57;10.20;;;2.30;;
18879;SDS011;9572;52.378;13.404;2023-03-04T14:41:27;11.03;;;2.40;;
18879;SDS011;9572;52.378;13.404;2023-03-04T14:44:07;13.23;;;2.43;;
18879;SDS011;9572;52.378;13.404;2023-03-04T14:46:41;9.13;;;2.17;;
18879;SDS011;9572;52.378;13.404;2023-03-04T14:49:11;20.60;;;3.23;;
18879;SDS011;9572;52.378;13.404;2023-03-04T14:51:42;12.57;;;2.07;;
18879;SDS011;9572;52.378;13.404;2023-03-04T14:54:28;15.33;;;3.30;;
18879;SDS011;9572;52.378;13.404;2023-03-04T14:56:57;19.63;;;3.27;;
18879;SDS011;9572;52.378;13.404;2023-03-04T14:59:30;12.07;;;2.47;;
18879;SDS011;9572;52.378;13.404;2023-03-04T15:02:09;16.37;;;2.47;;
18879;SDS011;9572;52.378;13.404;2023-03-04T15:05:00;16.13;;;2.87;;
18879;SDS011;9572;52.378;13.404;2023-03-04T15:07:35;11.83;;;2.40;;
18879;SDS011;9572;52.378;13.404;2023-03-04T15:10:04;10.33;;;2.37;;